Time;durP1;ratioP1;P1;durP2;ratioP2;P2;SDS_P1;SDS_P2;PMS_P1;PMS_P2;Temp;Humidity;BMP_temperature;BMP_pressure;BME280_temperature;BME280_humidity;BME280_pressure;Samples;Min_cycle;Max_cycle;Signal;HPM_P1;HPM_P2
2023/11/15 00:00:33;;;;;;;;;;;10.60;87.40;;;;;;5014094;28;19956;-63
2023/11/15 00:03:07;;;;;;;;;;;10.60;87.40;;;;;;5027020;28;19935;-64
2023/11/15 00:05:41;;;;;;;;;;;10.60;87.60;;;;;;5019661;28;19929;-66
2023/11/15 00:08:14;;;;;;;;;;;10.60;87.60;;;;;;5019848;28;20368;-64
2023/11/15 00:10:48;;;;;;;;;;;10.60;87.60;;;;;;5025852;28;19929;-64
2023/11/15 00:13:14;;;;;;;;;;;10.60;87.60;;;;;;5021790;28;20028;-64
2023/11/15 00:15:47;;;;;;;;;;;10.60;87.80;;;;;;5006307;28;19995;-64
2023/11/15 00:18:21;;;;;;;;;;;10.60;87.80;;;;;;5013551;28;19925;-65
2023/11/15 00:20:55;;;;;;;;;;;10.60;88.10;;;;;;5027295;28;19948;-63
2023/11/15 00:23:36;;;;;;;;;;;10.60;87.90;;;;;;5026045;28;20019;-63
2023/11/15 00:26:09;;;;;;;;;;;10.70;88.70;;;;;;5022216;28;19935;-64
2023/11/15 00:28:52;;;;;;;;;;;10.80;88.30;;;;;;5007901;28;19929;-64
2023/11/15 00:31:25;;;;;;;;;;;10.70;88.40;;;;;;5026438;28;19932;-63
2023/11/15 00:33:59;;;;;;;;;;;10.70;88.50;;;;;;5012920;28;20422;-64
2023/11/15 00:36:38;;;;;;;;;;;10.90;88.80;;;;;;5002240;28;19975;-63
2023/11/15 00:39:12;;;;;;;;;;;10.90;88.50;;;;;;4994670;28;19926;-65
2023/11/15 00:41:45;;;;;;;;;;;10.80;88.40;;;;;;5007297;28;19933;-63
2023/11/15 00:44:19;;;;;;;;;;;10.80;88.30;;;;;;5020650;28;19936;-64
2023/11/15 00:46:51;;;;;;;;;;;10.80;88.40;;;;;;5026828;28;19929;-64
2023/11/15 00:49:24;;;;;;;;;;;10.70;88.60;;;;;;5025797;28;19929;-65
2023/11/15 00:51:59;;;;;;;;;;;10.70;89.00;;;;;;5019082;28;19961;-63
2023/11/15 00:54:32;;;;;;;;;;;10.80;88.90;;;;;;5021106;28;19925;-64
2023/11/15 00:57:05;;;;;;;;;;;10.80;88.80;;;;;;5021928;28;20028;-65
2023/11/15 00:59:44;;;;;;;;;;;10.80;88.70;;;;;;4989376;28;19937;-66
2023/11/15 01:02:18;;;;;;;;;;;10.80;88.60;;;;;;5011117;28;19929;-66
2023/11/15 01:04:52;;;;;;;;;;;10.80;88.80;;;;;;5019851;28;19964;-65
2023/11/15 01:07:26;;;;;;;;;;;10.80;88.70;;;;;;5018660;28;20005;-65
2023/11/15 01:10:00;;;;;;;;;;;10.80;88.70;;;;;;5030557;28;19940;-66
2023/11/15 01:12:33;;;;;;;;;;;10.80;88.60;;;;;;5024410;28;19930;-65
2023/11/15 01:15:06;;;;;;;;;;;10.70;88.60;;;;;;5018712;28;19948;-66
2023/11/15 01:17:40;;;;;;;;;;;10.70;88.60;;;;;;5008485;28;19953;-67
2023/11/15 01:20:13;;;;;;;;;;;10.70;88.50;;;;;;5009931;28;19933;-67
2023/11/15 01:22:48;;;;;;;;;;;10.70;88.50;;;;;;5027135;28;19929;-65
2023/11/15 01:25:22;;;;;;;;;;;10.70;88.60;;;;;;5031357;28;19983;-65
2023/11/15 01:27:55;;;;;;;;;;;10.70;88.50;;;;;;5029969;28;19987;-66
2023/11/15 01:30:29;;;;;;;;;;;10.70;88.50;;;;;;5028481;28;19959;-66
2023/11/15 01:32:56;;;;;;;;;;;10.70;88.50;;;;;;5011611;28;20044;-66
2023/11/15 01:35:32;;;;;;;;;;;10.70;88.50;;;;;;5009891;28;19948;-66
2023/11/15 01:38:07;;;;;;;;;;;10.70;88.50;;;;;;5019182;28;19956;-65
2023/11/15 01:40:42;;;;;;;;;;;10.70;88.40;;;;;;5024041;28;19936;-67
2023/11/15 01:43:16;;;;;;;;;;;10.70;88.40;;;;;;5012431;28;20387;-66
2023/11/15 01:45:50;;;;;;;;;;;10.70;88.40;;;;;;5007406;28;20399;-65
2023/11/15 01:48:24;;;;;;;;;;;10.60;88.50;;;;;;5030567;28;19971;-64
2023/11/15 01:50:59;;;;;;;;;;;10.60;88.50;;;;;;5028442;28;20291;-65
2023/11/15 01:53:33;;;;;;;;;;;10.60;88.40;;;;;;5026576;28;19933;-66
2023/11/15 01:56:08;;;;;;;;;;;10.60;88.50;;;;;;5027062;28;20012;-66
2023/11/15 01:58:41;;;;;;;;;;;10.60;88.50;;;;;;5026677;28;19933;-66
2023/11/15 02:01:16;;;;;;;;;;;10.60;88.50;;;;;;5023521;28;19933;-65
2023/11/15 02:03:50;;;;;;;;;;;10.60;88.50;;;;;;5011004;28;19929;-65
2023/11/15 02:06:16;;;;;;;;;;;10.60;88.50;;;;;;5010303;28;19956;-66
2023/11/15 02:08:52;;;;;;;;;;;10.60;88.50;;;;;;5009918;28;20036;-66
2023/11/15 02:11:25;;;;;;;;;;;10.60;88.50;;;;;;5010267;28;20430;-67
2023/11/15 02:13:58;;;;;;;;;;;10.50;88.50;;;;;;5009214;28;20028;-64
2023/11/15 02:16:32;;;;;;;;;;;10.60;88.40;;;;;;5008607;28;19988;-63
2023/11/15 02:19:05;;;;;;;;;;;10.60;88.40;;;;;;5015370;28;19937;-63
2023/11/15 02:21:33;;;;;;;;;;;10.60;88.40;;;;;;5027835;28;19929;-63
2023/11/15 02:24:08;;;;;;;;;;;10.60;88.30;;;;;;5028331;28;20372;-63
2023/11/15 02:26:42;;;;;;;;;;;10.60;88.40;;;;;;5007220;28;20342;-62
2023/11/15 02:29:14;;;;;;;;;;;10.60;88.40;;;;;;5031087;28;20007;-63
2023/11/15 02:31:48;;;;;;;;;;;10.60;88.40;;;;;;5026599;28;19925;-63
2023/11/15 02:34:21;;;;;;;;;;;10.60;88.40;;;;;;5028894;28;19973;-62
2023/11/15 02:36:47;;;;;;;;;;;10.60;88.50;;;;;;5011207;28;19929;-62
2023/11/15 02:39:22;;;;;;;;;;;10.60;88.40;;;;;;5029702;28;19925;-64
2023/11/15 02:41:56;;;;;;;;;;;10.50;88.40;;;;;;5026519;28;19929;-63
2023/11/15 02:44:29;;;;;;;;;;;10.50;88.50;;;;;;5004917;28;19953;-64
2023/11/15 02:47:02;;;;;;;;;;;10.50;88.60;;;;;;4991428;28;20020;-63
2023/11/15 02:49:37;;;;;;;;;;;10.50;88.60;;;;;;5007678;28;19936;-63
2023/11/15 02:52:10;;;;;;;;;;;10.50;88.50;;;;;;5006552;28;19925;-64
2023/11/15 02:54:44;;;;;;;;;;;10.60;88.60;;;;;;5026594;28;19925;-65
2023/11/15 02:57:18;;;;;;;;;;;10.50;88.60;;;;;;5030374;28;19964;-64
2023/11/15 02:59:50;;;;;;;;;;;10.50;88.60;;;;;;5031373;28;20288;-65
2023/11/15 03:02:23;;;;;;;;;;;10.50;88.70;;;;;;5029321;28;19929;-63
2023/11/15 03:04:56;;;;;;;;;;;10.50;88.60;;;;;;5029724;28;19932;-64
2023/11/15 03:07:29;;;;;;;;;;;10.50;88.60;;;;;;5026428;28;19929;-62
2023/11/15 03:10:03;;;;;;;;;;;10.50;88.50;;;;;;4977923;28;20451;-63
2023/11/15 03:12:37;;;;;;;;;;;10.50;88.50;;;;;;5003402;28;19926;-63
2023/11/15 03:15:10;;;;;;;;;;;10.50;88.50;;;;;;5013920;28;20398;-63
2023/11/15 03:17:43;;;;;;;;;;;10.40;88.60;;;;;;5003630;28;20330;-64
2023/11/15 03:20:16;;;;;;;;;;;10.40;88.60;;;;;;5006529;28;20406;-63
2023/11/15 03:22:49;;;;;;;;;;;10.40;88.70;;;;;;5027639;28;19933;-62
2023/11/15 03:25:24;;;;;;;;;;;10.40;88.60;;;;;;5026224;28;20335;-62
2023/11/15 03:27:58;;;;;;;;;;;10.40;88.50;;;;;;5024378;28;19964;-63
2023/11/15 03:30:31;;;;;;;;;;;10.40;88.50;;;;;;5016527;28;19932;-63
2023/11/15 03:33:04;;;;;;;;;;;10.40;88.60;;;;;;5017887;28;19925;-63
2023/11/15 03:35:37;;;;;;;;;;;10.40;88.70;;;;;;5012791;28;20358;-63
2023/11/15 03:38:10;;;;;;;;;;;10.30;88.80;;;;;;5017483;28;20017;-64
2023/11/15 03:40:44;;;;;;;;;;;10.30;88.70;;;;;;5006279;28;19933;-64
2023/11/15 03:43:18;;;;;;;;;;;10.40;88.70;;;;;;5006503;28;20437;-63
2023/11/15 03:45:51;;;;;;;;;;;10.30;88.70;;;;;;5022986;28;19929;-62
2023/11/15 03:48:24;;;;;;;;;;;10.30;88.70;;;;;;5026123;28;19929;-63
2023/11/15 03:50:57;;;;;;;;;;;10.30;88.70;;;;;;5027038;28;19960;-63
2023/11/15 03:53:30;;;;;;;;;;;10.30;88.70;;;;;;5007250;28;19929;-62
2023/11/15 03:56:08;;;;;;;;;;;10.30;88.70;;;;;;4990943;28;20296;-63
2023/11/15 03:58:42;;;;;;;;;;;10.30;88.70;;;;;;5023523;28;19929;-63
2023/11/15 04:01:15;;;;;;;;;;;10.30;88.70;;;;;;5029207;28;20376;-62
2023/11/15 04:03:48;;;;;;;;;;;10.20;88.70;;;;;;5026597;28;19929;-62
2023/11/15 04:06:21;;;;;;;;;;;10.30;88.80;;;;;;5028944;28;20006;-63
2023/11/15 04:08:56;;;;;;;;;;;10.30;88.70;;;;;;5011409;28;20358;-63
2023/11/15 04:11:37;;;;;;;;;;;10.20;88.60;;;;;;5007998;28;19925;-63
2023/11/15 04:14:10;;;;;;;;;;;10.20;88.60;;;;;;5008952;28;19929;-63
2023/11/15 04:16:44;;;;;;;;;;;10.20;88.70;;;;;;5010706;28;19930;-64
2023/11/15 04:19:17;;;;;;;;;;;10.20;88.70;;;;;;5013100;28;19973;-64
2023/11/15 04:21:50;;;;;;;;;;;10.20;88.80;;;;;;5007480;28;19929;-64
2023/11/15 04:24:24;;;;;;;;;;;10.20;88.70;;;;;;5026327;28;19928;-64
2023/11/15 04:26:58;;;;;;;;;;;10.10;88.80;;;;;;5019582;28;19933;-63
2023/11/15 04:29:32;;;;;;;;;;;10.20;88.80;;;;;;5026682;28;20021;-63
2023/11/15 04:32:05;;;;;;;;;;;10.20;88.70;;;;;;4998802;28;20004;-61
2023/11/15 04:34:31;;;;;;;;;;;10.10;88.60;;;;;;5009432;28;20430;-61
2023/11/15 04:37:05;;;;;;;;;;;10.20;88.60;;;;;;5004837;28;19937;-61
2023/11/15 04:39:38;;;;;;;;;;;10.10;88.50;;;;;;5007680;28;19961;-61
2023/11/15 04:42:12;;;;;;;;;;;10.10;88.50;;;;;;5005597;28;19925;-60
2023/11/15 04:44:46;;;;;;;;;;;10.10;88.50;;;;;;5005578;28;19987;-61
2023/11/15 04:47:20;;;;;;;;;;;10.10;88.50;;;;;;5008352;28;20000;-61
2023/11/15 04:49:53;;;;;;;;;;;10.10;88.50;;;;;;5005575;28;19925;-61
2023/11/15 04:52:26;;;;;;;;;;;10.10;88.60;;;;;;5006500;28;19957;-62
2023/11/15 04:55:00;;;;;;;;;;;10.10;88.70;;;;;;5007730;28;19933;-62
2023/11/15 04:57:35;;;;;;;;;;;10.10;88.70;;;;;;5010848;28;19935;-61
2023/11/15 05:00:10;;;;;;;;;;;10.10;88.70;;;;;;5022471;28;19925;-61
2023/11/15 05:02:50;;;;;;;;;;;10.10;88.80;;;;;;5006002;28;19926;-61
2023/11/15 05:05:30;;;;;;;;;;;10.10;88.90;;;;;;5006046;28;19936;-62
2023/11/15 05:08:04;;;;;;;;;;;10.10;88.90;;;;;;5004104;28;19933;-62
2023/11/15 05:10:38;;;;;;;;;;;10.20;88.90;;;;;;5005720;28;19926;-61
2023/11/15 05:13:13;;;;;;;;;;;10.10;89.00;;;;;;5005558;28;19926;-62
2023/11/15 05:15:47;;;;;;;;;;;10.10;89.10;;;;;;5004069;28;19937;-61
2023/11/15 05:18:20;;;;;;;;;;;10.10;89.20;;;;;;5007119;28;19932;-61
2023/11/15 05:20:53;;;;;;;;;;;10.10;89.40;;;;;;5006776;28;19925;-61
2023/11/15 05:23:26;;;;;;;;;;;10.10;89.20;;;;;;5009297;28;19940;-62
2023/11/15 05:25:59;;;;;;;;;;;10.10;89.10;;;;;;5007621;28;19926;-61
2023/11/15 05:28:34;;;;;;;;;;;10.10;89.10;;;;;;5005459;28;19925;-61
2023/11/15 05:31:08;;;;;;;;;;;10.10;89.10;;;;;;5005124;28;19933;-60
2023/11/15 05:33:41;;;;;;;;;;;10.10;89.10;;;;;;5006507;28;19932;-61
2023/11/15 05:36:14;;;;;;;;;;;10.10;89.10;;;;;;5015175;28;19926;-61
2023/11/15 05:38:47;;;;;;;;;;;10.10;89.20;;;;;;5015015;28;19930;-61
2023/11/15 05:41:20;;;;;;;;;;;10.10;89.20;;;;;;5010782;28;19932;-62
2023/11/15 05:43:54;;;;;;;;;;;10.10;89.20;;;;;;5008980;28;19991;-64
2023/11/15 05:46:28;;;;;;;;;;;10.10;89.30;;;;;;5007676;28;21485;-64
2023/11/15 05:49:01;;;;;;;;;;;10.10;89.20;;;;;;5009150;28;19929;-63
2023/11/15 05:51:34;;;;;;;;;;;10.10;89.20;;;;;;5007067;28;20410;-64
2023/11/15 05:54:08;;;;;;;;;;;10.10;89.30;;;;;;5031024;28;19975;-65
2023/11/15 05:56:44;;;;;;;;;;;10.10;89.30;;;;;;5020473;28;21010;-64
2023/11/15 05:59:19;;;;;;;;;;;10.10;89.30;;;;;;5012396;28;19937;-64
2023/11/15 06:01:54;;;;;;;;;;;10.00;89.30;;;;;;5011756;28;19932;-64
2023/11/15 06:04:30;;;;;;;;;;;10.00;89.20;;;;;;5020084;28;19926;-64
2023/11/15 06:07:05;;;;;;;;;;;10.10;89.30;;;;;;4988903;28;19930;-64
2023/11/15 06:09:39;;;;;;;;;;;10.00;89.40;;;;;;5011420;28;19980;-63
2023/11/15 06:12:12;;;;;;;;;;;10.00;89.30;;;;;;5031991;28;19933;-63
2023/11/15 06:14:46;;;;;;;;;;;10.00;89.30;;;;;;5037270;28;19929;-63
2023/11/15 06:17:20;;;;;;;;;;;10.00;89.20;;;;;;5031389;28;19969;-64
2023/11/15 06:19:54;;;;;;;;;;;10.10;89.30;;;;;;5033796;28;20023;-63
2023/11/15 06:22:27;;;;;;;;;;;10.00;89.20;;;;;;5014917;28;19941;-64
2023/11/15 06:25:00;;;;;;;;;;;10.00;89.20;;;;;;5008990;28;19987;-64
2023/11/15 06:27:33;;;;;;;;;;;10.00;89.20;;;;;;5009791;28;20330;-63
2023/11/15 06:30:09;;;;;;;;;;;10.00;89.30;;;;;;5007451;28;20044;-64
2023/11/15 06:32:42;;;;;;;;;;;10.00;89.20;;;;;;5011260;28;20412;-63
2023/11/15 06:35:09;;;;;;;;;;;10.00;89.20;;;;;;5030060;28;20364;-64
2023/11/15 06:37:42;;;;;;;;;;;10.00;89.20;;;;;;5010260;28;19929;-65
2023/11/15 06:40:15;;;;;;;;;;;9.90;89.20;;;;;;5008636;28;20381;-63
2023/11/15 06:42:48;;;;;;;;;;;9.90;89.20;;;;;;5010037;28;19925;-63
2023/11/15 06:45:22;;;;;;;;;;;9.90;89.30;;;;;;5009298;28;19941;-64
2023/11/15 06:47:56;;;;;;;;;;;9.90;89.30;;;;;;5008498;28;19933;-64
2023/11/15 06:50:30;;;;;;;;;;;9.90;89.30;;;;;;5009556;28;19925;-62
2023/11/15 06:53:03;;;;;;;;;;;10.00;89.30;;;;;;5008787;28;19925;-75
2023/11/15 06:55:29;;;;;;;;;;;9.90;89.30;;;;;;5009989;28;19926;-74
2023/11/15 06:58:03;;;;;;;;;;;9.90;89.30;;;;;;5028818;28;19925;-70
2023/11/15 07:00:38;;;;;;;;;;;10.00;89.30;;;;;;5027987;28;20019;-73
2023/11/15 07:03:12;;;;;;;;;;;10.00;89.20;;;;;;5026285;28;19925;-72
2023/11/15 07:05:51;;;;;;;;;;;10.00;89.10;;;;;;5029530;28;19925;-70
2023/11/15 07:08:26;;;;;;;;;;;10.00;89.20;;;;;;5008951;28;20572;-76
2023/11/15 07:11:01;;;;;;;;;;;10.00;89.20;;;;;;5025003;28;20077;-75
2023/11/15 07:13:34;;;;;;;;;;;10.00;89.20;;;;;;5026705;28;20042;-74
2023/11/15 07:16:10;;;;;;;;;;;10.00;89.20;;;;;;5029680;28;19925;-74
2023/11/15 07:18:44;;;;;;;;;;;10.00;89.10;;;;;;5027414;28;20299;-75
2023/11/15 07:21:17;;;;;;;;;;;10.00;89.10;;;;;;5027797;28;19925;-74
2023/11/15 07:23:44;;;;;;;;;;;10.00;89.10;;;;;;5020855;28;20416;-73
2023/11/15 07:26:17;;;;;;;;;;;10.00;89.20;;;;;;5028370;28;19968;-73
2023/11/15 07:28:50;;;;;;;;;;;10.00;89.20;;;;;;5029107;28;19929;-74
2023/11/15 07:31:24;;;;;;;;;;;10.00;89.10;;;;;;5021640;28;19936;-75
2023/11/15 07:33:59;;;;;;;;;;;10.10;89.10;;;;;;5019194;28;19929;-74
2023/11/15 07:36:33;;;;;;;;;;;10.10;89.10;;;;;;5025044;28;19936;-77
2023/11/15 07:39:06;;;;;;;;;;;10.10;89.10;;;;;;5029434;28;19933;-73
2023/11/15 07:41:39;;;;;;;;;;;10.10;89.10;;;;;;5028040;28;19932;-75
2023/11/15 07:44:15;;;;;;;;;;;10.10;89.10;;;;;;5031231;28;20463;-72
2023/11/15 07:46:50;;;;;;;;;;;10.10;89.30;;;;;;5029423;28;20015;-72
2023/11/15 07:49:24;;;;;;;;;;;10.10;89.50;;;;;;5027821;28;19953;-73
2023/11/15 07:51:57;;;;;;;;;;;10.00;89.50;;;;;;5014046;28;19991;-74
2023/11/15 07:54:30;;;;;;;;;;;10.00;89.50;;;;;;5029228;28;19959;-74
2023/11/15 07:57:03;;;;;;;;;;;10.00;89.60;;;;;;5008933;28;19930;-73
2023/11/15 07:59:37;;;;;;;;;;;10.10;89.60;;;;;;5022954;28;19925;-73
2023/11/15 08:02:12;;;;;;;;;;;10.10;89.60;;;;;;5026940;28;20377;-61
2023/11/15 08:04:46;;;;;;;;;;;10.10;89.50;;;;;;5012499;28;19925;-62
2023/11/15 08:07:21;;;;;;;;;;;10.10;89.40;;;;;;5015189;28;20396;-61
2023/11/15 08:09:54;;;;;;;;;;;10.20;89.30;;;;;;5024788;28;19925;-61
2023/11/15 08:12:27;;;;;;;;;;;10.30;89.30;;;;;;5019303;28;19932;-61
2023/11/15 08:15:00;;;;;;;;;;;10.20;89.20;;;;;;5025634;28;19940;-62
2023/11/15 08:17:35;;;;;;;;;;;10.20;89.20;;;;;;5018947;28;20044;-61
2023/11/15 08:20:11;;;;;;;;;;;10.20;89.30;;;;;;5006964;28;20063;-61
2023/11/15 08:22:45;;;;;;;;;;;10.20;89.20;;;;;;5008055;28;19989;-62
2023/11/15 08:25:20;;;;;;;;;;;10.30;89.20;;;;;;5008340;28;19936;-62
2023/11/15 08:27:54;;;;;;;;;;;10.20;89.00;;;;;;5007487;28;20015;-60
2023/11/15 08:30:41;;;;;;;;;;;10.30;89.10;;;;;;5000996;28;21490;-61
2023/11/15 08:33:23;;;;;;;;;;;10.30;89.00;;;;;;5013559;28;19933;-61
2023/11/15 08:35:56;;;;;;;;;;;10.30;89.00;;;;;;5009526;28;19936;-63
2023/11/15 08:38:29;;;;;;;;;;;10.40;88.90;;;;;;5009324;28;19936;-61
2023/11/15 08:40:55;;;;;;;;;;;10.40;88.80;;;;;;5007858;28;20007;-61
2023/11/15 08:43:29;;;;;;;;;;;10.40;88.80;;;;;;5009467;28;19951;-61
2023/11/15 08:46:02;;;;;;;;;;;10.40;88.80;;;;;;5009429;28;19941;-61
2023/11/15 08:48:37;;;;;;;;;;;10.50;88.80;;;;;;5005995;28;19983;-61
2023/11/15 08:51:11;;;;;;;;;;;10.40;88.70;;;;;;5002230;28;19937;-61
2023/11/15 08:53:47;;;;;;;;;;;10.40;88.70;;;;;;5002356;28;19925;-61
2023/11/15 08:56:20;;;;;;;;;;;10.40;88.60;;;;;;5008289;28;19935;-62
2023/11/15 08:58:54;;;;;;;;;;;10.50;88.70;;;;;;5006307;28;20016;-61
2023/11/15 09:01:27;;;;;;;;;;;10.50;88.50;;;;;;5005833;28;19926;-61
2023/11/15 09:04:01;;;;;;;;;;;10.60;88.20;;;;;;5008310;28;19933;-61
2023/11/15 09:06:34;;;;;;;;;;;10.60;88.10;;;;;;5008654;28;20319;-61
2023/11/15 09:09:08;;;;;;;;;;;10.70;88.10;;;;;;5005431;28;20127;-60
2023/11/15 09:11:44;;;;;;;;;;;10.80;88.00;;;;;;5006356;28;20008;-74
2023/11/15 09:14:17;;;;;;;;;;;10.70;87.60;;;;;;5001366;28;19980;-73
2023/11/15 09:16:50;;;;;;;;;;;10.70;87.60;;;;;;5007372;28;19937;-74
2023/11/15 09:19:25;;;;;;;;;;;10.80;87.80;;;;;;5007097;28;19952;-74
2023/11/15 09:22:01;;;;;;;;;;;10.80;87.60;;;;;;5010744;28;19937;-72
2023/11/15 09:24:35;;;;;;;;;;;10.90;87.50;;;;;;5013894;28;19926;-73
2023/11/15 09:27:09;;;;;;;;;;;10.90;87.40;;;;;;5008849;28;19925;-74
2023/11/15 09:29:42;;;;;;;;;;;10.90;87.40;;;;;;5006553;28;19948;-72
2023/11/15 09:32:15;;;;;;;;;;;10.90;87.40;;;;;;5013715;28;19966;-74
2023/11/15 09:34:49;;;;;;;;;;;10.90;87.40;;;;;;5005131;28;19940;-75
2023/11/15 09:37:22;;;;;;;;;;;10.90;87.30;;;;;;5010134;28;20169;-74
2023/11/15 09:39:56;;;;;;;;;;;10.90;87.20;;;;;;5013041;28;19961;-74
2023/11/15 09:42:29;;;;;;;;;;;10.90;87.00;;;;;;5013551;28;20021;-75
2023/11/15 09:45:02;;;;;;;;;;;11.00;87.10;;;;;;5013247;28;19929;-74
2023/11/15 09:47:35;;;;;;;;;;;11.00;87.00;;;;;;5009794;28;19972;-74
2023/11/15 09:50:10;;;;;;;;;;;11.00;86.70;;;;;;5010259;28;20016;-76
2023/11/15 09:52:46;;;;;;;;;;;10.90;86.60;;;;;;5009735;28;19983;-74
2023/11/15 09:55:19;;;;;;;;;;;11.00;86.70;;;;;;5012126;28;19926;-76
2023/11/15 09:57:53;;;;;;;;;;;11.10;86.70;;;;;;5011046;28;19925;-75
2023/11/15 10:00:29;;;;;;;;;;;11.10;86.60;;;;;;5008197;28;20328;-74
2023/11/15 10:03:02;;;;;;;;;;;11.10;86.40;;;;;;5004830;28;19960;-72
2023/11/15 10:05:43;;;;;;;;;;;11.10;86.30;;;;;;5018569;28;19925;-73
2023/11/15 10:08:17;;;;;;;;;;;11.20;86.20;;;;;;5029581;28;19987;-75
2023/11/15 10:11:02;;;;;;;;;;;11.20;86.00;;;;;;5022797;28;19968;-75
2023/11/15 10:13:37;;;;;;;;;;;11.20;85.70;;;;;;5025999;28;20296;-74
2023/11/15 10:16:23;;;;;;;;;;;11.30;85.50;;;;;;5009593;28;19925;-74
2023/11/15 10:18:58;;;;;;;;;;;11.30;85.40;;;;;;5002792;28;20056;-73
2023/11/15 10:21:35;;;;;;;;;;;11.40;85.20;;;;;;5009538;28;19925;-64
2023/11/15 10:24:14;;;;;;;;;;;11.50;85.00;;;;;;5007989;28;19930;-77
2023/11/15 10:26:53;;;;;;;;;;;11.50;85.00;;;;;;5005329;28;19925;-74
2023/11/15 10:29:30;;;;;;;;;;;11.50;85.10;;;;;;5008921;28;20020;-75
2023/11/15 10:32:04;;;;;;;;;;;11.50;84.80;;;;;;5012407;28;20347;-75
2023/11/15 10:34:51;;;;;;;;;;;11.50;84.70;;;;;;5009034;28;19933;-78
2023/11/15 10:37:25;;;;;;;;;;;11.70;84.60;;;;;;5016116;28;19936;-76
2023/11/15 10:39:58;;;;;;;;;;;11.70;84.50;;;;;;5029463;28;19925;-76
2023/11/15 10:42:34;;;;;;;;;;;11.80;84.40;;;;;;5030281;28;20331;-78
2023/11/15 10:45:09;;;;;;;;;;;11.80;84.40;;;;;;5029794;28;19964;-77
2023/11/15 10:47:47;;;;;;;;;;;11.90;84.20;;;;;;5029497;28;20260;-77
2023/11/15 10:50:22;;;;;;;;;;;11.90;84.10;;;;;;5024811;28;19929;-80
2023/11/15 10:52:57;;;;;;;;;;;11.90;83.90;;;;;;5031670;28;20291;-77
2023/11/15 10:55:33;;;;;;;;;;;11.90;83.80;;;;;;5018726;28;19929;-77
2023/11/15 10:58:08;;;;;;;;;;;12.00;83.80;;;;;;5032075;28;19929;-76
2023/11/15 11:00:43;;;;;;;;;;;12.10;83.60;;;;;;5022999;28;19929;-76
2023/11/15 11:03:17;;;;;;;;;;;12.10;83.50;;;;;;5029727;28;19925;-76
2023/11/15 11:05:57;;;;;;;;;;;12.10;83.20;;;;;;5021365;28;20471;-76
2023/11/15 11:08:37;;;;;;;;;;;12.10;83.10;;;;;;5006661;28;20008;-79
2023/11/15 11:11:20;;;;;;;;;;;12.10;83.10;;;;;;5025348;28;19928;-76
2023/11/15 11:14:18;;;;;;;;;;;12.10;82.90;;;;;;5027443;28;20067;-75
2023/11/15 11:16:52;;;;;;;;;;;12.10;82.90;;;;;;5014955;28;19932;-75
2023/11/15 11:19:25;;;;;;;;;;;12.10;83.10;;;;;;5030257;28;19947;-76
2023/11/15 11:22:08;;;;;;;;;;;12.10;82.80;;;;;;5009925;28;19937;-77
2023/11/15 11:25:06;;;;;;;;;;;12.10;82.90;;;;;;5010941;28;19930;-79
2023/11/15 11:27:55;;;;;;;;;;;12.10;83.00;;;;;;5009827;28;19973;-76
2023/11/15 11:30:29;;;;;;;;;;;12.10;82.90;;;;;;5007925;28;19965;-76
2023/11/15 11:33:10;;;;;;;;;;;12.10;82.90;;;;;;5028554;28;20384;-64
2023/11/15 11:35:45;;;;;;;;;;;12.00;83.20;;;;;;5029079;28;19929;-65
2023/11/15 11:38:50;;;;;;;;;;;11.90;83.10;;;;;;5027175;28;20008;-64
2023/11/15 11:41:25;;;;;;;;;;;11.90;82.90;;;;;;4946065;29;20628;-65
2023/11/15 11:43:59;;;;;;;;;;;11.90;83.10;;;;;;5001636;28;19940;-65
2023/11/15 11:46:32;;;;;;;;;;;11.90;82.80;;;;;;5010874;28;20384;-64
2023/11/15 11:49:08;;;;;;;;;;;11.90;82.60;;;;;;5008113;28;20038;-65
2023/11/15 11:51:43;;;;;;;;;;;11.90;82.80;;;;;;5006007;28;19925;-64
2023/11/15 11:54:23;;;;;;;;;;;11.90;82.90;;;;;;5007501;28;19933;-64
2023/11/15 11:56:57;;;;;;;;;;;12.00;82.10;;;;;;5010286;28;20372;-64
2023/11/15 11:59:31;;;;;;;;;;;12.00;81.90;;;;;;5007114;28;19948;-64
2023/11/15 12:02:04;;;;;;;;;;;12.00;81.00;;;;;;5009533;28;20029;-65
2023/11/15 12:04:43;;;;;;;;;;;12.00;80.60;;;;;;5004695;28;19929;-65
2023/11/15 12:07:16;;;;;;;;;;;12.10;80.60;;;;;;5011383;28;19951;-66
2023/11/15 12:09:49;;;;;;;;;;;12.10;80.90;;;;;;5004553;28;19933;-65
2023/11/15 12:12:25;;;;;;;;;;;12.10;81.20;;;;;;5009827;28;19929;-64
2023/11/15 12:14:59;;;;;;;;;;;12.00;81.20;;;;;;5001722;28;19929;-65
2023/11/15 12:17:37;;;;;;;;;;;12.00;81.20;;;;;;4995382;28;20407;-64
2023/11/15 12:20:11;;;;;;;;;;;12.10;81.20;;;;;;5002999;28;19941;-64
2023/11/15 12:22:44;;;;;;;;;;;12.10;81.50;;;;;;5005188;28;19930;-65
2023/11/15 12:25:17;;;;;;;;;;;12.10;81.60;;;;;;5004839;28;19925;-65
2023/11/15 12:27:52;;;;;;;;;;;12.20;81.50;;;;;;5008995;28;19929;-64
2023/11/15 12:30:26;;;;;;;;;;;12.40;80.80;;;;;;5002823;28;19934;-64
2023/11/15 12:33:02;;;;;;;;;;;12.50;80.60;;;;;;5005817;28;19934;-66
2023/11/15 12:35:36;;;;;;;;;;;12.40;80.60;;;;;;5005931;28;19925;-64
2023/11/15 12:38:12;;;;;;;;;;;12.40;80.50;;;;;;5007367;28;20368;-65
2023/11/15 12:40:45;;;;;;;;;;;12.30;80.40;;;;;;5000818;28;19984;-64
2023/11/15 12:43:21;;;;;;;;;;;12.30;80.40;;;;;;5005826;28;19973;-72
2023/11/15 12:45:56;;;;;;;;;;;12.20;79.90;;;;;;5006797;28;19925;-73
2023/11/15 12:48:29;;;;;;;;;;;12.20;79.80;;;;;;5002594;28;19929;-73
2023/11/15 12:51:05;;;;;;;;;;;12.20;79.70;;;;;;4999311;28;19988;-73
2023/11/15 12:53:41;;;;;;;;;;;12.30;79.50;;;;;;5011002;28;19929;-72
2023/11/15 12:56:18;;;;;;;;;;;12.40;79.50;;;;;;5029329;28;19925;-74
2023/11/15 12:58:55;;;;;;;;;;;12.40;79.40;;;;;;5030766;28;19936;-76
2023/11/15 13:01:28;;;;;;;;;;;12.50;79.10;;;;;;5018545;28;19929;-74
2023/11/15 13:04:01;;;;;;;;;;;12.40;78.90;;;;;;5013602;28;20372;-74
2023/11/15 13:06:36;;;;;;;;;;;12.50;79.00;;;;;;5013974;28;19976;-74
2023/11/15 13:09:14;;;;;;;;;;;12.50;78.90;;;;;;5016925;28;19933;-72
2023/11/15 13:11:47;;;;;;;;;;;12.50;78.80;;;;;;5016124;28;19983;-74
2023/11/15 13:14:24;;;;;;;;;;;12.50;78.70;;;;;;5015417;28;19940;-72
2023/11/15 13:16:58;;;;;;;;;;;12.50;78.80;;;;;;5008902;28;19936;-76
2023/11/15 13:19:32;;;;;;;;;;;12.70;78.80;;;;;;5009282;28;20048;-72
2023/11/15 13:22:06;;;;;;;;;;;12.80;78.50;;;;;;5004926;28;19933;-74
2023/11/15 13:24:41;;;;;;;;;;;12.80;78.30;;;;;;5006657;28;19929;-74
2023/11/15 13:27:17;;;;;;;;;;;12.80;78.10;;;;;;5009833;28;19933;-73
2023/11/15 13:29:54;;;;;;;;;;;12.70;77.90;;;;;;5010624;28;20008;-73
2023/11/15 13:32:27;;;;;;;;;;;12.60;77.70;;;;;;5012321;28;19976;-73
2023/11/15 13:35:06;;;;;;;;;;;12.60;77.80;;;;;;5010232;28;19933;-72
2023/11/15 13:37:42;;;;;;;;;;;12.50;78.20;;;;;;5004255;28;19933;-73
2023/11/15 13:40:16;;;;;;;;;;;12.40;79.00;;;;;;5007379;28;19980;-73
2023/11/15 13:42:50;;;;;;;;;;;12.30;79.60;;;;;;5011617;28;19929;-73
2023/11/15 13:45:25;;;;;;;;;;;12.20;80.30;;;;;;5011116;28;19991;-73
2023/11/15 13:47:59;;;;;;;;;;;12.20;81.00;;;;;;5022196;28;20419;-73
2023/11/15 13:50:32;;;;;;;;;;;12.10;81.30;;;;;;5027086;28;19940;-74
2023/11/15 13:53:05;;;;;;;;;;;12.00;81.60;;;;;;5027433;28;19939;-68
2023/11/15 13:55:38;;;;;;;;;;;12.00;81.30;;;;;;5030176;28;19991;-69
2023/11/15 13:58:12;;;;;;;;;;;11.80;80.80;;;;;;5007035;28;20418;-68
2023/11/15 14:00:52;;;;;;;;;;;11.70;81.10;;;;;;5007619;28;19940;-68
2023/11/15 14:03:26;;;;;;;;;;;11.70;81.50;;;;;;5010669;28;19934;-67
2023/11/15 14:06:01;;;;;;;;;;;11.60;81.80;;;;;;5008641;28;20021;-68
2023/11/15 14:08:36;;;;;;;;;;;11.60;81.80;;;;;;5007637;28;19935;-68
2023/11/15 14:11:10;;;;;;;;;;;11.50;82.20;;;;;;4997103;28;20377;-70
2023/11/15 14:13:45;;;;;;;;;;;11.50;82.30;;;;;;5026547;28;19933;-69
2023/11/15 14:16:20;;;;;;;;;;;11.40;82.50;;;;;;5031100;28;19940;-69
2023/11/15 14:18:54;;;;;;;;;;;11.40;82.70;;;;;;5017616;28;20024;-68
2023/11/15 14:21:28;;;;;;;;;;;11.40;82.80;;;;;;5006268;28;20028;-67
2023/11/15 14:24:01;;;;;;;;;;;11.40;82.90;;;;;;5020920;28;21155;-67
2023/11/15 14:26:34;;;;;;;;;;;11.40;83.10;;;;;;5023889;28;20085;-68
2023/11/15 14:29:08;;;;;;;;;;;11.40;82.90;;;;;;5022448;28;20356;-68
2023/11/15 14:31:42;;;;;;;;;;;11.40;83.00;;;;;;5031132;28;19948;-69
2023/11/15 14:34:16;;;;;;;;;;;11.40;83.00;;;;;;5028479;28;19953;-68
2023/11/15 14:36:54;;;;;;;;;;;11.40;83.00;;;;;;5028542;28;19928;-68
2023/11/15 14:39:30;;;;;;;;;;;11.30;83.20;;;;;;5028380;28;20000;-69
2023/11/15 14:42:05;;;;;;;;;;;11.30;83.10;;;;;;5030837;28;20012;-68
2023/11/15 14:44:40;;;;;;;;;;;11.20;83.30;;;;;;5029243;28;19936;-69
2023/11/15 14:47:15;;;;;;;;;;;11.20;83.20;;;;;;5029730;28;20376;-66
2023/11/15 14:49:48;;;;;;;;;;;11.20;83.20;;;;;;5027133;28;20023;-68
2023/11/15 14:52:25;;;;;;;;;;;11.20;83.30;;;;;;5026593;28;20028;-68
2023/11/15 14:55:08;;;;;;;;;;;11.30;83.20;;;;;;5030660;28;19929;-65
2023/11/15 14:57:41;;;;;;;;;;;11.20;83.40;;;;;;5026631;28;19939;-66